Time;durP1;ratioP1;P1;durP2;ratioP2;P2;SDS_P1;SDS_P2;PMS_P1;PMS_P2;Temp;Humidity;BMP_temperature;BMP_pressure;BME280_temperature;BME280_humidity;BME280_pressure;Samples;Min_cycle;Max_cycle;Signal;HPM_P1;HPM_P2
2020/12/02 00:02:13;;;;;;;49.15;8.23;;;;;;;3.23;nan;96537.25;4926202;28;20250;-38
2020/12/02 00:04:40;;;;;;;93.95;9.40;;;;;;;3.29;nan;96539.56;4928909;28;20243;-38
2020/12/02 00:07:09;;;;;;;58.08;7.55;;;;;;;3.34;nan;96547.97;4925116;28;20736;-38
2020/12/02 00:09:36;;;;;;;37.63;9.00;;;;;;;3.32;nan;96547.19;4927638;28;20215;-43
2020/12/02 00:12:04;;;;;;;41.50;7.32;;;;;;;3.27;nan;96539.66;4925695;28;20651;-43
2020/12/02 00:14:46;;;;;;;37.22;7.70;;;;;;;3.34;nan;96543.69;4926417;28;20214;-43
2020/12/02 00:17:18;;;;;;;71.90;7.65;;;;;;;3.36;nan;96539.31;4927994;28;20220;-43
2020/12/02 00:19:46;;;;;;;31.98;7.50;;;;;;;3.33;nan;96543.72;4926374;28;20859;-44
2020/12/02 00:22:18;;;;;;;59.03;9.05;;;;;;;3.40;nan;96542.63;4927094;28;20246;-43
2020/12/02 00:24:47;;;;;;;63.00;8.88;;;;;;;3.38;nan;96536.72;4933981;28;20226;-44
2020/12/02 00:29:51;;;;;;;81.75;9.10;;;;;;;3.17;nan;96517.69;4954137;28;20209;-40
2020/12/02 00:32:24;;;;;;;105.30;11.05;;;;;;;3.23;nan;96532.91;4954906;28;20191;-39
2020/12/02 00:34:50;;;;;;;130.45;10.02;;;;;;;3.28;nan;96530.19;4955300;28;20230;-39
2020/12/02 00:37:18;;;;;;;108.28;9.85;;;;;;;3.21;nan;96514.16;4955814;28;20864;-38
2020/12/02 00:39:47;;;;;;;86.88;8.77;;;;;;;3.24;nan;96526.06;4955822;28;20243;-43
2020/12/02 00:42:14;;;;;;;28.67;6.68;;;;;;;3.28;nan;96530.19;4955318;28;20569;-44
2020/12/02 00:45:11;;;;;;;25.45;6.35;;;;;;;3.32;nan;96521.50;4955705;28;20194;-43
2020/12/02 00:47:38;;;;;;;33.13;7.00;;;;;;;3.37;nan;96524.75;4952604;28;20203;-44
2020/12/02 00:50:08;;;;;;;30.00;7.22;;;;;;;3.41;nan;96516.88;4952857;28;20698;-44
2020/12/02 00:52:35;;;;;;;17.65;5.60;;;;;;;3.46;nan;96525.22;4956959;28;20802;-39
2020/12/02 00:55:03;;;;;;;25.33;6.68;;;;;;;3.43;nan;96525.34;4954077;28;20751;-41
2020/12/02 00:57:33;;;;;;;16.75;6.00;;;;;;;3.43;nan;96519.34;4955188;28;20608;-39
2020/12/02 01:00:04;;;;;;;51.28;7.47;;;;;;;3.45;nan;96518.41;4953344;28;20700;-39
2020/12/02 01:02:36;;;;;;;41.15;7.00;;;;;;;3.43;nan;96519.34;4955705;28;20241;-39
2020/12/02 01:05:07;;;;;;;24.15;7.30;;;;;;;3.34;nan;96520.53;4955123;28;20630;-38
2020/12/02 01:07:34;;;;;;;28.00;6.30;;;;;;;3.37;nan;96517.03;4956483;28;20301;-39
2020/12/02 01:10:01;;;;;;;22.58;7.43;;;;;;;3.36;nan;96511.03;4954752;28;20753;-44
2020/12/02 01:12:29;;;;;;;15.73;6.70;;;;;;;3.31;nan;96514.66;4955250;28;20281;-44
2020/12/02 01:14:56;;;;;;;18.48;7.90;;;;;;;3.27;nan;96513.94;4954529;28;20756;-44
2020/12/02 01:17:23;;;;;;;15.70;6.78;;;;;;;3.29;nan;96517.28;4953990;28;20669;-44
2020/12/02 01:19:49;;;;;;;15.90;7.55;;;;;;;3.26;nan;96529.41;4954530;28;20726;-43
2020/12/02 01:22:26;;;;;;;16.52;7.18;;;;;;;3.23;nan;96517.50;4955791;28;20373;-44
2020/12/02 01:24:58;;;;;;;14.80;6.50;;;;;;;3.20;nan;96515.03;4955099;28;20613;-43
2020/12/02 01:27:33;;;;;;;30.75;7.75;;;;;;;3.15;nan;96514.34;4953318;28;20230;-44
2020/12/02 01:30:00;;;;;;;19.40;7.72;;;;;;;3.15;nan;96511.78;4954153;28;20261;-44
2020/12/02 01:32:27;;;;;;;27.08;6.80;;;;;;;3.19;nan;96515.94;4954529;28;20622;-43
2020/12/02 01:34:55;;;;;;;28.67;7.68;;;;;;;3.09;nan;96506.84;4957860;28;20614;-40
2020/12/02 01:37:30;;;;;;;29.88;7.75;;;;;;;2.94;nan;96489.38;4954133;28;20881;-38
2020/12/02 01:40:25;;;;;;;82.55;10.55;;;;;;;3.07;nan;96516.34;4954509;28;20851;-38
2020/12/02 01:42:55;;;;;;;32.95;6.80;;;;;;;2.99;nan;96513.19;4933089;28;20686;-38
2020/12/02 01:45:25;;;;;;;22.77;7.68;;;;;;;2.99;nan;96514.91;4952919;28;20689;-39
2020/12/02 01:48:10;;;;;;;28.35;7.10;;;;;;;2.97;nan;96516.72;4955299;28;20693;-39
2020/12/02 01:50:40;;;;;;;80.75;9.55;;;;;;;3.00;nan;96522.59;4954769;28;20222;-39
2020/12/02 01:53:17;;;;;;;47.90;7.32;;;;;;;2.97;nan;96515.00;4956082;28;20237;-39
2020/12/02 01:55:53;;;;;;;28.00;7.07;;;;;;;2.90;nan;96513.53;4955765;28;20217;-39
2020/12/02 01:58:31;;;;;;;19.40;7.35;;;;;;;2.74;nan;96476.38;4955385;28;20632;-39
2020/12/02 02:01:05;;;;;;;69.85;10.45;;;;;;;2.99;nan;96502.91;4955487;28;20689;-39
2020/12/02 02:03:36;;;;;;;25.08;7.25;;;;;;;2.96;nan;96513.31;4958045;28;20874;-39
2020/12/02 02:06:08;;;;;;;67.55;10.35;;;;;;;2.98;nan;96506.38;4957837;28;20691;-39
2020/12/02 02:08:35;;;;;;;160.43;11.15;;;;;;;2.97;nan;96504.72;4957996;28;20321;-38
2020/12/02 02:11:05;;;;;;;47.88;7.20;;;;;;;2.90;nan;96503.25;4957678;28;20255;-39
2020/12/02 02:13:55;;;;;;;124.65;11.40;;;;;;;2.80;nan;96501.84;4957789;28;20704;-38
2020/12/02 02:16:25;;;;;;;45.90;7.95;;;;;;;2.81;nan;96503.53;4956249;28;20666;-39
2020/12/02 02:18:52;;;;;;;157.18;12.20;;;;;;;2.80;nan;96506.16;4958294;28;20253;-44
2020/12/02 02:21:22;;;;;;;79.10;8.88;;;;;;;2.74;nan;96509.78;4956987;28;20609;-44
2020/12/02 02:23:49;;;;;;;89.68;8.57;;;;;;;2.77;nan;96501.97;4958452;28;20590;-44
2020/12/02 02:26:27;;;;;;;73.18;8.85;;;;;;;2.54;nan;96467.66;4957078;28;20743;-44
2020/12/02 02:28:58;;;;;;;82.88;9.60;;;;;;;2.70;nan;96499.63;4956962;28;20699;-44
2020/12/02 02:31:29;;;;;;;34.53;7.47;;;;;;;2.76;nan;96502.00;4951303;28;20744;-44
2020/12/02 02:33:58;;;;;;;26.30;6.70;;;;;;;2.77;nan;96507.09;4957267;28;20624;-45
2020/12/02 02:36:28;;;;;;;23.00;8.05;;;;;;;2.81;nan;96498.38;4957230;28;20231;-44
2020/12/02 02:38:57;;;;;;;50.47;7.68;;;;;;;2.84;nan;96492.31;4957617;28;20200;-44
2020/12/02 02:41:28;;;;;;;29.88;8.27;;;;;;;2.89;nan;96496.44;4956449;28;20589;-44
2020/12/02 02:43:56;;;;;;;56.20;9.07;;;;;;;2.84;nan;96487.16;4956927;28;20654;-44
2020/12/02 02:46:23;;;;;;;161.60;11.65;;;;;;;2.75;nan;96487.50;4954728;28;20806;-45
2020/12/02 02:48:50;;;;;;;58.63;8.43;;;;;;;2.72;nan;96493.56;4956427;28;20655;-45
2020/12/02 02:51:17;;;;;;;23.98;9.25;;;;;;;2.76;nan;96479.75;4955940;28;20231;-45
2020/12/02 02:53:44;;;;;;;20.30;8.13;;;;;;;2.74;nan;96478.97;4956735;28;20681;-45
2020/12/02 02:56:12;;;;;;;65.32;9.90;;;;;;;2.88;nan;96481.88;4954876;28;20298;-44
2020/12/02 02:58:40;;;;;;;110.25;11.93;;;;;;;2.92;nan;96486.03;4955661;28;20230;-45
2020/12/02 03:01:08;;;;;;;45.53;9.65;;;;;;;2.70;nan;96487.66;4954383;28;20226;-44
2020/12/02 03:03:35;;;;;;;58.75;9.38;;;;;;;2.73;nan;96484.97;4955915;28;20289;-49
2020/12/02 03:06:03;;;;;;;14.98;7.55;;;;;;;2.66;nan;96485.22;4955929;28;20688;-44
2020/12/02 03:08:31;;;;;;;77.07;10.68;;;;;;;2.67;nan;96487.75;4956071;28;20204;-44
2020/12/02 03:11:00;;;;;;;26.60;9.18;;;;;;;2.68;nan;96486.00;4955869;28;20226;-44
2020/12/02 03:13:42;;;;;;;48.83;10.00;;;;;;;2.71;nan;96481.59;4956419;28;20282;-44
2020/12/02 03:16:17;;;;;;;66.93;9.80;;;;;;;2.74;nan;96480.69;4954835;28;20621;-44
2020/12/02 03:18:45;;;;;;;46.83;11.27;;;;;;;2.78;nan;96477.94;4953262;28;20581;-45
2020/12/02 03:21:15;;;;;;;47.35;10.35;;;;;;;2.74;nan;96460.97;4955976;28;20223;-44
2020/12/02 03:23:43;;;;;;;31.65;9.10;;;;;;;2.78;nan;96480.50;4955695;28;20199;-44
2020/12/02 03:26:11;;;;;;;28.00;9.80;;;;;;;2.68;nan;96470.59;4955863;28;20258;-44
2020/12/02 03:28:40;;;;;;;52.85;10.55;;;;;;;2.69;nan;96460.28;4952483;28;20266;-44
2020/12/02 03:31:11;;;;;;;50.90;11.10;;;;;;;2.71;nan;96465.38;4953690;28;20220;-44
2020/12/02 03:33:38;;;;;;;39.40;10.57;;;;;;;2.80;nan;96476.16;4953105;28;20223;-44
2020/12/02 03:36:06;;;;;;;22.27;8.07;;;;;;;2.82;nan;96466.69;4955479;28;20749;-44
2020/12/02 03:38:33;;;;;;;37.38;9.60;;;;;;;2.87;nan;96464.78;4957015;28;20724;-44
2020/12/02 03:41:00;;;;;;;38.70;10.15;;;;;;;2.94;nan;96463.69;4955979;28;20600;-44
2020/12/02 03:43:27;;;;;;;29.90;9.63;;;;;;;2.95;nan;96473.06;4956473;28;20898;-44
2020/12/02 03:45:55;;;;;;;63.10;11.65;;;;;;;2.94;nan;96473.13;4955598;28;20230;-45
2020/12/02 03:48:22;;;;;;;27.02;8.45;;;;;;;2.99;nan;96477.22;4955617;28;20657;-44
2020/12/02 03:50:49;;;;;;;67.30;11.27;;;;;;;2.90;nan;96468.97;4955193;28;20701;-44
2020/12/02 03:53:18;;;;;;;38.28;10.52;;;;;;;2.91;nan;96475.78;4956208;28;20260;-44
2020/12/02 03:55:46;;;;;;;73.75;11.15;;;;;;;2.80;nan;96475.34;4954768;28;20617;-44
2020/12/02 03:58:14;;;;;;;27.73;9.15;;;;;;;2.72;nan;96473.00;4955267;28;20190;-44
2020/12/02 04:00:41;;;;;;;31.10;9.43;;;;;;;2.76;nan;96471.19;4953380;28;20281;-43
2020/12/02 04:03:09;;;;;;;34.03;10.30;;;;;;;2.73;nan;96468.72;4955186;28;20300;-43
2020/12/02 04:05:36;;;;;;;51.90;9.23;;;;;;;2.68;nan;96471.44;4955483;28;20230;-44
2020/12/02 04:08:03;;;;;;;48.88;10.45;;;;;;;2.69;nan;96473.13;4955199;28;20639;-46
2020/12/02 04:10:31;;;;;;;23.67;8.93;;;;;;;2.71;nan;96476.47;4954691;28;20230;-46
2020/12/02 04:12:58;;;;;;;18.77;8.75;;;;;;;2.74;nan;96471.25;4955139;28;20602;-46
2020/12/02 04:15:25;;;;;;;21.10;9.52;;;;;;;2.71;nan;96468.75;4953901;28;20952;-46
2020/12/02 04:17:53;;;;;;;50.17;12.02;;;;;;;2.70;nan;96468.81;4954611;28;20544;-46
2020/12/02 04:20:21;;;;;;;31.50;10.27;;;;;;;2.64;nan;96454.44;4952597;28;20621;-44
2020/12/02 04:22:49;;;;;;;21.85;9.23;;;;;;;2.72;nan;96462.72;4956087;28;20294;-44
2020/12/02 04:25:16;;;;;;;31.77;10.15;;;;;;;2.75;nan;96462.66;4954677;28;20278;-44
2020/12/02 04:27:43;;;;;;;90.63;12.30;;;;;;;2.72;nan;96467.06;4955001;28;20897;-44
2020/12/02 04:30:10;;;;;;;61.42;10.70;;;;;;;2.66;nan;96462.13;4954282;28;20230;-44
2020/12/02 04:32:37;;;;;;;25.40;10.02;;;;;;;2.58;nan;96459.78;4954957;28;20286;-45
2020/12/02 04:35:05;;;;;;;60.35;11.07;;;;;;;2.64;nan;96461.34;4955036;28;20693;-44
2020/12/02 04:37:35;;;;;;;35.15;10.63;;;;;;;2.66;nan;96460.38;4955287;28;20605;-44
2020/12/02 04:40:05;;;;;;;51.25;11.00;;;;;;;2.51;nan;96458.31;4954142;28;20736;-44
2020/12/02 04:42:36;;;;;;;49.65;10.05;;;;;;;2.53;nan;96465.97;4954742;28;20696;-44
2020/12/02 04:45:07;;;;;;;35.65;10.60;;;;;;;2.58;nan;96464.91;4954105;28;20249;-44
2020/12/02 04:47:36;;;;;;;49.30;11.20;;;;;;;2.65;nan;96461.25;4954995;28;20230;-44
2020/12/02 04:50:05;;;;;;;30.13;9.18;;;;;;;2.65;nan;96455.31;4953669;28;20357;-45
2020/12/02 04:52:32;;;;;;;61.00;10.95;;;;;;;2.67;nan;96453.50;4954561;28;20202;-45
2020/12/02 04:54:59;;;;;;;19.60;9.25;;;;;;;2.75;nan;96456.66;4954245;28;20288;-45
2020/12/02 04:57:26;;;;;;;28.30;10.07;;;;;;;2.77;nan;96455.72;4954520;28;20288;-44
2020/12/02 04:59:53;;;;;;;41.47;9.85;;;;;;;2.70;nan;96456.81;4954200;28;20218;-45
2020/12/02 05:02:26;;;;;;;72.72;11.82;;;;;;;2.70;nan;96458.53;4956008;28;20743;-46
2020/12/02 05:04:55;;;;;;;20.52;8.95;;;;;;;2.63;nan;96460.47;4954977;28;20763;-44
2020/12/02 05:07:22;;;;;;;43.65;11.38;;;;;;;2.75;nan;96451.53;4952358;28;20822;-44
2020/12/02 05:09:56;;;;;;;17.45;9.35;;;;;;;2.74;nan;96449.84;4954079;28;20737;-49
2020/12/02 05:12:27;;;;;;;50.30;11.40;;;;;;;2.77;nan;96457.44;4953091;28;20586;-44
2020/12/02 05:15:08;;;;;;;37.72;9.98;;;;;;;2.67;nan;96459.50;4954413;28;20231;-43
2020/12/02 05:17:35;;;;;;;24.15;9.45;;;;;;;2.73;nan;96459.25;4953069;28;20678;-43
2020/12/02 05:20:09;;;;;;;19.52;8.95;;;;;;;2.73;nan;96459.25;4953095;28;20230;-45
2020/12/02 05:22:38;;;;;;;22.70;9.98;;;;;;;2.75;nan;96464.38;4955060;28;20665;-45
2020/12/02 05:25:15;;;;;;;52.13;10.60;;;;;;;2.71;nan;96466.19;4953652;28;20245;-45
2020/12/02 05:27:45;;;;;;;28.63;10.45;;;;;;;2.65;nan;96471.53;4955018;28;20589;-43
2020/12/02 05:30:26;;;;;;;81.38;13.48;;;;;;;2.68;nan;96465.47;4957539;28;20862;-46
2020/12/02 05:33:21;;;;;;;26.67;9.70;;;;;;;2.67;nan;96468.91;4957574;28;20198;-43
2020/12/02 05:35:50;;;;;;;48.65;11.55;;;;;;;2.58;nan;96475.19;4956816;28;20226;-44
2020/12/02 05:38:31;;;;;;;32.45;11.40;;;;;;;2.60;nan;96473.44;4958940;28;20662;-44
2020/12/02 05:40:59;;;;;;;34.05;11.70;;;;;;;2.62;nan;96473.38;4958100;28;20296;-44
2020/12/02 05:43:35;;;;;;;40.45;10.82;;;;;;;2.59;nan;96471.72;4958108;28;20242;-44
2020/12/02 05:46:02;;;;;;;145.30;15.80;;;;;;;2.58;nan;96474.38;4958837;28;20741;-44
2020/12/02 05:48:35;;;;;;;47.30;11.57;;;;;;;2.57;nan;96485.53;4957778;28;20693;-44
2020/12/02 05:51:06;;;;;;;43.10;11.18;;;;;;;2.51;nan;96472.91;4959465;28;20594;-44
2020/12/02 05:53:48;;;;;;;46.22;12.88;;;;;;;2.51;nan;96468.56;4959413;28;20268;-45
2020/12/02 05:56:16;;;;;;;126.15;17.63;;;;;;;2.50;nan;96473.78;4956197;28;20230;-45
2020/12/02 05:58:45;;;;;;;58.38;13.90;;;;;;;2.54;nan;96475.34;4958173;28;20595;-45
2020/12/02 06:01:18;;;;;;;41.60;12.38;;;;;;;2.49;nan;96470.38;4957897;28;20231;-45
2020/12/02 06:03:50;;;;;;;136.68;16.10;;;;;;;2.36;nan;96453.69;4957384;28;20277;-44
2020/12/02 06:06:17;;;;;;;34.08;12.63;;;;;;;2.43;nan;96472.31;4957427;28;20759;-44
2020/12/02 06:08:47;;;;;;;66.72;14.10;;;;;;;2.46;nan;96470.47;4957597;28;20646;-45
2020/12/02 06:11:36;;;;;;;36.55;13.45;;;;;;;2.46;nan;96474.75;4956523;28;20725;-44
2020/12/02 06:14:08;;;;;;;49.42;12.45;;;;;;;2.42;nan;96473.19;4954024;28;20233;-48
2020/12/02 06:16:39;;;;;;;92.00;38.53;;;;;;;2.48;nan;96478.97;4957292;28;20536;-44
2020/12/02 06:19:31;;;;;;;54.83;14.23;;;;;;;2.42;nan;96465.50;4957432;28;20218;-45
2020/12/02 06:21:59;;;;;;;32.15;12.85;;;;;;;2.45;nan;96473.94;4956577;28;20709;-45
2020/12/02 06:24:34;;;;;;;34.30;13.40;;;;;;;2.45;nan;96473.94;4957003;28;20217;-43
2020/12/02 06:27:09;;;;;;;34.80;12.95;;;;;;;2.47;nan;96468.72;4957755;28;20316;-45
2020/12/02 06:29:37;;;;;;;25.60;12.35;;;;;;;2.42;nan;96468.06;4956214;28;20588;-45
2020/12/02 06:32:14;;;;;;;29.85;13.27;;;;;;;2.40;nan;96460.41;4957818;28;20265;-39
2020/12/02 06:34:41;;;;;;;29.02;12.00;;;;;;;2.41;nan;96464.66;4954737;28;20716;-40
2020/12/02 06:37:15;;;;;;;27.60;13.63;;;;;;;2.43;nan;96459.47;4956219;28;20730;-40
2020/12/02 06:39:45;;;;;;;33.25;14.10;;;;;;;2.40;nan;96460.41;4953442;28;20202;-44
2020/12/02 06:42:25;;;;;;;27.90;13.35;;;;;;;2.52;nan;96456.59;4956880;28;20626;-45
2020/12/02 06:45:09;;;;;;;28.02;13.10;;;;;;;2.58;nan;96457.22;4955927;28;20303;-43
2020/12/02 06:47:54;;;;;;;32.00;14.07;;;;;;;2.54;nan;96458.22;4956423;28;20239;-44
2020/12/02 06:50:24;;;;;;;29.95;13.25;;;;;;;2.61;nan;96459.69;4954039;28;20729;-45
2020/12/02 06:52:52;;;;;;;32.33;13.93;;;;;;;2.53;nan;96455.69;4956395;28;20602;-44
2020/12/02 06:55:23;;;;;;;31.52;12.02;;;;;;;2.51;nan;96448.03;4959320;28;20252;-44
2020/12/02 06:58:02;;;;;;;28.70;13.65;;;;;;;2.47;nan;96455.88;4956290;28;20708;-50
2020/12/02 07:00:31;;;;;;;32.83;13.45;;;;;;;2.46;nan;96455.06;4955255;28;20628;-44
2020/12/02 07:03:03;;;;;;;25.90;13.27;;;;;;;2.58;nan;96464.09;4956280;28;20285;-45
2020/12/02 07:05:37;;;;;;;29.60;13.40;;;;;;;2.60;nan;96452.03;4956478;28;20277;-45
2020/12/02 07:08:16;;;;;;;32.42;13.27;;;;;;;2.52;nan;96461.72;4956592;28;20584;-44
2020/12/02 07:10:55;;;;;;;29.48;13.65;;;;;;;2.52;nan;96459.16;4953445;28;20628;-45
2020/12/02 07:13:23;;;;;;;26.08;14.23;;;;;;;2.56;nan;96453.88;4956205;28;20829;-44
2020/12/02 07:15:50;;;;;;;30.85;14.27;;;;;;;2.58;nan;96457.22;4956377;28;20628;-45
2020/12/02 07:18:20;;;;;;;29.92;13.85;;;;;;;2.62;nan;96455.38;4956298;28;20257;-44
2020/12/02 07:20:55;;;;;;;29.25;13.40;;;;;;;2.61;nan;96459.69;4956411;28;20314;-43
2020/12/02 07:23:22;;;;;;;28.63;12.50;;;;;;;2.57;nan;96463.25;4954867;28;20302;-43
2020/12/02 07:25:53;;;;;;;35.30;14.63;;;;;;;2.56;nan;96469.28;4956708;28;20645;-39
2020/12/02 07:28:23;;;;;;;29.02;13.35;;;;;;;2.54;nan;96463.34;4954845;28;20359;-39
2020/12/02 07:30:50;;;;;;;30.58;13.00;;;;;;;2.47;nan;96473.88;4957839;28;20297;-39
2020/12/02 07:33:22;;;;;;;28.63;12.38;;;;;;;2.47;nan;96472.16;4960175;28;20304;-44
2020/12/02 07:36:07;;;;;;;30.00;13.85;;;;;;;2.56;nan;96466.72;4959000;28;20636;-38
2020/12/02 07:38:34;;;;;;;27.75;12.88;;;;;;;2.56;nan;96476.16;4958612;28;20813;-39
2020/12/02 07:41:15;;;;;;;37.17;15.07;;;;;;;2.60;nan;96470.00;4958841;28;20254;-38
2020/12/02 07:43:48;;;;;;;27.45;14.18;;;;;;;2.51;nan;96468.56;4955422;28;20545;-39
2020/12/02 07:46:16;;;;;;;32.72;14.10;;;;;;;2.53;nan;96466.81;4969761;22;20301;-38
2020/12/02 07:48:44;;;;;;;31.23;13.60;;;;;;;2.54;nan;96476.19;5008921;28;20662;-45
2020/12/02 07:51:19;;;;;;;34.97;14.93;;;;;;;2.51;nan;96468.56;5008093;28;20750;-44
2020/12/02 07:53:55;;;;;;;35.55;14.27;;;;;;;2.61;nan;96469.97;5006218;28;20201;-39
2020/12/02 07:56:26;;;;;;;29.30;13.07;;;;;;;2.66;nan;96468.06;5001471;28;20303;-46
2020/12/02 07:58:55;;;;;;;28.20;14.65;;;;;;;2.54;nan;96453.09;5006332;28;20644;-45
2020/12/02 08:01:58;;;;;;;31.00;14.07;;;;;;;2.67;nan;96464.63;5005251;28;20727;-41
2020/12/02 08:04:37;;;;;;;34.55;15.38;;;;;;;2.74;nan;96471.25;4997050;28;20691;-39
2020/12/02 08:07:06;;;;;;;38.70;15.93;;;;;;;2.77;nan;96472.84;5005801;28;20200;-39
2020/12/02 08:09:40;;;;;;;33.55;15.98;;;;;;;2.76;nan;96477.16;5005653;28;20587;-39
2020/12/02 08:12:11;;;;;;;32.30;14.68;;;;;;;2.81;nan;96475.25;5002231;28;20293;-39
2020/12/02 08:14:41;;;;;;;28.10;12.70;;;;;;;2.79;nan;96474.47;5003668;28;20517;-39
2020/12/02 08:17:16;;;;;;;33.67;13.52;;;;;;;2.81;nan;96469.31;5000042;28;20200;-39
2020/12/02 08:19:44;;;;;;;26.75;13.35;;;;;;;2.83;nan;96478.63;5002812;28;20577;-39
2020/12/02 08:22:21;;;;;;;34.08;15.95;;;;;;;2.81;nan;96472.69;5005455;28;20273;-38
2020/12/02 08:25:01;;;;;;;29.17;12.60;;;;;;;2.82;nan;96474.41;5005030;28;20695;-39
2020/12/02 08:27:41;;;;;;;30.88;14.05;;;;;;;2.86;nan;96473.38;5012396;28;20688;-39
2020/12/02 08:30:11;;;;;;;37.10;15.00;;;;;;;2.91;nan;96474.06;5003069;28;20630;-38
2020/12/02 08:32:48;;;;;;;53.40;15.80;;;;;;;2.80;nan;96465.88;5010480;28;20575;-38
2020/12/02 08:35:24;;;;;;;35.22;14.60;;;;;;;2.78;nan;96475.38;5007268;28;20219;-37
2020/12/02 08:37:55;;;;;;;33.83;15.23;;;;;;;2.81;nan;96467.56;5004617;28;20526;-38
2020/12/02 08:40:31;;;;;;;35.47;15.07;;;;;;;2.83;nan;96458.09;5000826;28;20312;-38
2020/12/02 08:43:17;;;;;;;31.15;14.27;;;;;;;2.91;nan;96473.22;5010996;23;20292;-42
2020/12/02 08:45:56;;;;;;;29.52;13.05;;;;;;;2.89;nan;96465.59;4980784;28;20344;-44
2020/12/02 08:48:24;;;;;;;25.88;13.00;;;;;;;2.87;nan;96462.22;4982350;28;20499;-39
2020/12/02 08:50:51;;;;;;;31.80;14.75;;;;;;;2.96;nan;96461.06;4988338;28;20615;-44
2020/12/02 08:53:25;;;;;;;33.50;14.80;;;;;;;2.95;nan;96449.94;4987948;28;20711;-43
2020/12/02 08:55:53;;;;;;;31.65;15.73;;;;;;;2.90;nan;96451.00;4980828;28;20226;-43
2020/12/02 08:58:21;;;;;;;46.97;19.58;;;;;;;2.94;nan;96452.56;4984704;28;20742;-43
2020/12/02 09:00:48;;;;;;;48.00;21.70;;;;;;;2.98;nan;96449.84;4984487;28;20279;-44
2020/12/02 09:03:15;;;;;;;29.17;14.93;;;;;;;2.93;nan;96451.72;4989500;28;20311;-43
2020/12/02 09:05:43;;;;;;;30.60;14.85;;;;;;;2.91;nan;96458.66;4990479;28;20561;-50
2020/12/02 09:08:10;;;;;;;37.10;16.15;;;;;;;2.87;nan;96457.06;4989056;28;20256;-50
2020/12/02 09:10:38;;;;;;;32.80;15.00;;;;;;;2.87;nan;96444.22;4987248;28;20315;-50
2020/12/02 09:13:06;;;;;;;36.55;13.32;;;;;;;2.76;nan;96436.06;4987683;28;20193;-50
2020/12/02 09:15:33;;;;;;;31.08;13.40;;;;;;;2.87;nan;96441.66;4990112;28;20304;-50
2020/12/02 09:17:59;;;;;;;31.30;15.18;;;;;;;2.90;nan;96441.56;4987609;28;20684;-49
2020/12/02 09:20:27;;;;;;;31.65;15.15;;;;;;;2.84;nan;96441.78;4988520;28;20311;-49
2020/12/02 09:22:57;;;;;;;29.15;14.65;;;;;;;2.85;nan;96438.31;4989203;28;20300;-50
2020/12/02 09:25:25;;;;;;;32.22;13.80;;;;;;;2.92;nan;96432.06;4990935;28;20518;-44
2020/12/02 09:27:52;;;;;;;29.83;13.38;;;;;;;2.97;nan;96435.31;4989026;28;20232;-44
2020/12/02 09:30:20;;;;;;;32.75;14.00;;;;;;;3.01;nan;96439.44;4991010;28;20370;-50
2020/12/02 09:32:52;;;;;;;27.42;14.25;;;;;;;2.97;nan;96442.19;4990191;28;20194;-49
2020/12/02 09:35:20;;;;;;;27.73;13.50;;;;;;;2.88;nan;96445.91;4991801;28;20260;-50
2020/12/02 09:37:48;;;;;;;29.40;13.38;;;;;;;2.90;nan;96441.56;4988600;28;20512;-54
2020/12/02 09:40:16;;;;;;;28.77;14.40;;;;;;;2.92;nan;96442.34;4988073;28;20599;-50
2020/12/02 09:43:15;;;;;;;35.75;14.10;;;;;;;2.93;nan;96438.88;4990735;28;20833;-44
2020/12/02 09:45:52;;;;;;;27.40;13.30;;;;;;;2.94;nan;96440.53;5002609;28;20249;-44
2020/12/02 09:48:23;;;;;;;31.23;14.82;;;;;;;2.95;nan;96433.69;4995455;28;20575;-44
2020/12/02 09:50:51;;;;;;;32.38;14.23;;;;;;;2.96;nan;96431.06;5002087;28;20229;-44
2020/12/02 09:53:20;;;;;;;29.63;14.52;;;;;;;2.93;nan;96431.16;4989020;28;20275;-44
2020/12/02 09:55:49;;;;;;;36.53;13.48;;;;;;;2.94;nan;96419.97;4992950;28;20222;-50
2020/12/02 09:58:16;;;;;;;33.45;15.45;;;;;;;3.03;nan;96417.09;4988383;28;20500;-50
2020/12/02 10:00:43;;;;;;;27.88;12.80;;;;;;;3.07;nan;96412.66;4987934;28;20303;-50
2020/12/02 10:03:50;;;;;;;27.25;12.75;;;;;;;3.06;nan;96408.44;4987635;28;20256;-50
2020/12/02 10:06:41;;;;;;;30.92;13.23;;;;;;;3.01;nan;96398.31;4988995;28;20654;-50
2020/12/02 10:09:23;;;;;;;30.13;14.00;;;;;;;2.84;nan;96399.81;4992657;28;20738;-49
2020/12/02 10:12:01;;;;;;;43.92;14.90;;;;;;;2.94;nan;96394.28;4987046;28;20259;-49
2020/12/02 10:14:48;;;;;;;26.25;13.57;;;;;;;2.84;nan;96359.53;4992778;28;20688;-44
2020/12/02 10:17:26;;;;;;;33.45;14.02;;;;;;;3.11;nan;96394.53;5012017;28;20233;-44
2020/12/02 10:20:22;;;;;;;27.50;12.27;;;;;;;3.17;nan;96393.47;4993289;28;20760;-47
2020/12/02 10:23:31;;;;;;;84.38;38.20;;;;;;;3.21;nan;96385.59;4995267;28;20214;-44
2020/12/02 10:26:28;;;;;;;33.75;16.15;;;;;;;3.22;nan;96382.13;4987981;28;20229;-50
2020/12/02 10:28:58;;;;;;;27.27;10.93;;;;;;;3.21;nan;96375.31;4990865;28;20280;-50
2020/12/02 10:31:39;;;;;;;22.15;11.52;;;;;;;2.94;nan;96371.16;4996595;28;20365;-49
2020/12/02 10:34:15;;;;;;;23.80;12.48;;;;;;;2.56;nan;96363.97;4998320;28;20551;-45
2020/12/02 10:36:46;;;;;;;24.30;12.70;;;;;;;2.38;nan;96362.06;4990793;28;20237;-50
2020/12/02 10:39:18;;;;;;;33.63;13.10;;;;;;;2.36;nan;96356.09;4984582;28;20562;-44
2020/12/02 10:41:56;;;;;;;23.98;10.35;;;;;;;2.38;nan;96364.63;4988874;28;20226;-50
2020/12/02 10:44:53;;;;;;;26.65;11.38;;;;;;;2.35;nan;96351.03;4994355;28;20699;-44
2020/12/02 10:47:52;;;;;;;30.20;11.75;;;;;;;2.17;nan;96357.63;5001278;28;20296;-44
2020/12/02 10:50:22;;;;;;;22.75;10.32;;;;;;;1.96;nan;96348.06;4999506;28;20724;-43
2020/12/02 10:52:52;;;;;;;27.30;12.88;;;;;;;1.89;nan;96349.16;4991275;28;20190;-44
2020/12/02 10:55:23;;;;;;;22.75;10.10;;;;;;;1.98;nan;96350.59;4991102;28;20708;-44
2020/12/02 10:57:56;;;;;;;27.33;11.98;;;;;;;1.87;nan;96356.06;4991044;28;20640;-44
2020/12/02 11:00:24;;;;;;;32.47;12.93;;;;;;;1.92;nan;96332.84;4992909;28;20217;-44
2020/12/02 11:03:11;;;;;;;28.88;11.65;;;;;;;1.90;nan;96334.59;4995957;28;20300;-48
2020/12/02 11:05:39;;;;;;;24.80;11.15;;;;;;;2.08;nan;96329.72;4995361;28;20731;-44
2020/12/02 11:08:16;;;;;;;30.30;10.95;;;;;;;2.14;nan;96323.53;5003611;28;20264;-44
2020/12/02 11:11:00;;;;;;;25.20;10.10;;;;;;;2.03;nan;96329.03;4991881;28;20567;-43
2020/12/02 11:13:33;;;;;;;27.33;11.38;;;;;;;1.93;nan;96334.50;4983812;28;20289;-49
2020/12/02 11:16:06;;;;;;;25.42;9.95;;;;;;;1.86;nan;96323.59;4987131;28;20253;-50
2020/12/02 11:18:57;;;;;;;28.65;12.65;;;;;;;1.89;nan;96318.38;4988613;28;20245;-49
2020/12/02 11:21:40;;;;;;;27.17;11.50;;;;;;;1.93;nan;96317.38;4983467;28;20260;-49
2020/12/02 11:24:29;;;;;;;26.42;10.57;;;;;;;2.00;nan;96308.56;4985734;28;20614;-49
2020/12/02 11:26:56;;;;;;;25.05;11.05;;;;;;;2.12;nan;96310.75;4985720;28;20653;-49
2020/12/02 11:29:23;;;;;;;25.48;10.93;;;;;;;2.24;nan;96299.22;4984618;28;20277;-49
2020/12/02 11:32:08;;;;;;;27.27;11.15;;;;;;;2.33;nan;96293.75;4993163;28;20308;-49
2020/12/02 11:34:54;;;;;;;24.65;10.20;;;;;;;2.53;nan;96292.19;4986587;28;20228;-49
2020/12/02 11:40:54;;;;;;;23.67;10.00;;;;;;;2.86;nan;96285.81;4966685;23;20251;-44
2020/12/02 11:43:25;;;;;;;24.20;11.07;;;;;;;2.93;nan;96284.69;4950751;28;20223;-45
2020/12/02 11:45:54;;;;;;;29.00;10.45;;;;;;;2.92;nan;96283.00;4936319;28;20772;-44
2020/12/02 11:48:26;;;;;;;28.33;12.18;;;;;;;2.81;nan;96279.16;4938737;28;20203;-44
2020/12/02 11:51:03;;;;;;;27.90;11.75;;;;;;;2.69;nan;96257.34;4944714;28;20222;-44
2020/12/02 11:53:42;;;;;;;29.95;12.63;;;;;;;2.82;nan;96273.97;4946626;28;20665;-44
2020/12/02 11:56:16;;;;;;;31.75;11.52;;;;;;;2.77;nan;96270.72;4950201;28;20238;-44
2020/12/02 11:58:48;;;;;;;30.00;12.05;;;;;;;2.76;nan;96269.06;4952673;28;20621;-50
2020/12/02 12:01:26;;;;;;;34.03;13.07;;;;;;;2.80;nan;96264.66;4949732;28;20223;-50
2020/12/02 12:04:09;;;;;;;27.38;12.10;;;;;;;2.85;nan;96257.59;4953462;28;20578;-44
2020/12/02 12:06:36;;;;;;;28.38;11.45;;;;;;;2.89;nan;96265.16;4945219;28;20234;-50
2020/12/02 12:09:14;;;;;;;27.55;11.90;;;;;;;2.91;nan;96258.22;4946097;28;20680;-49
2020/12/02 12:11:43;;;;;;;27.15;12.50;;;;;;;2.99;nan;96251.03;4948467;28;20393;-50
2020/12/02 12:14:17;;;;;;;28.55;11.43;;;;;;;2.93;nan;96248.69;4946033;28;20334;-50
2020/12/02 12:17:00;;;;;;;33.30;14.52;;;;;;;2.88;nan;96247.22;4944252;28;20766;-50